Rapports METAR proches de la station

 

LFQQ - LiILLE/Lesquin, France
Distance from station: SE 22km
Updated: 18-Dec-2017 04:12 CET
Overcast
Overcast
 Wind from NW
Wind: NW 22 km/h
Temperature: 8°C
Wind Chill: 4°C
Dew Point: 6°C
Humidity: 87%
Barometer: 1019 hPa
Clouds: Overcast
Visibility: 10 km
Cloud details: Mostly Cloudy 396 m
Mostly Cloudy 1158 m
Overcast 1646 m
2017/12/18 03:00 LFQQ 180300Z AUTO 32012KT 9999 BKN013 BKN038 OVC054 08/06 Q1019 BECMG BKN020
EBFN - KOKSIJDE, Belgique
Distance from station: NNW 42km
Updated: 18-Dec-2017 03:12 CET
Mostly Cloudy
Mostly Cloudy
 Wind from N
Wind: N 28 km/h
Temperature: 8°C
Wind Chill: 4°C
Dew Point: 5°C
Humidity: 82%
Barometer: 1020 hPa
Clouds: Mostly Cloudy
Visibility: 10 km
Cloud details: Few Clouds 1036 m
Mostly Cloudy 1615 m
2017/12/18 02:55 EBFN 180255Z AUTO 35015KT 9999 FEW034/// BKN053/// 08/05 Q1020 BLU
 
EBOS - OOSTENDE Airport, Belgique
Distance from station: N 53km
Updated: 18-Dec-2017 03:12 CET
Partly Cloudy
Partly Cloudy
 Wind from NNW
Wind: NNW 24 km/h
Temperature: 7°C
Wind Chill: 3°C
Dew Point: 4°C
Humidity: 81%
Barometer: 1020 hPa
Clouds: Partly Cloudy
Visibility: 10 km
Cloud details: Few Clouds 213 m
Partly Cloudy 610 m
2017/12/18 02:50 EBOS 180250Z 34013KT 9999 FEW007 SCT020 07/04 Q1020 NOSIG
EBCV - CHIEVRES, Belgique
Distance from station: ESE 66km
Updated: 18-Dec-2017 04:12 CET
Overcast
Overcast
 Wind from NW
Wind: NW 17 km/h
Temperature: 7°C
Wind Chill: 4°C
Dew Point: 7°C
Humidity: 100%
Barometer: 1018 hPa
Clouds: Overcast
Visibility: 9 km
Cloud details: Overcast 427 m
2017/12/18 03:03 EBCV 180303Z AUTO 32009KT 9000 OVC014/// 07/07 Q1018 GRN
 
LFAQ - BRAY, France
Distance from station: S 86km
Updated: 18-Dec-2017 04:12 CET
Overcast
Overcast
 Wind from NW
Wind: NW 13 km/h
Temperature: 7°C
Wind Chill: 5°C
Dew Point: 7°C
Humidity: 100%
Barometer: 1019 hPa
Clouds: Overcast
Visibility: 10 km
Cloud details: Mostly Cloudy 427 m
Overcast 914 m
2017/12/18 03:00 LFAQ 180300Z AUTO 31007KT 9999 BKN014 OVC030 07/07 Q1019
EHFS - VLISSINGEN, Pays-Bas
Distance from station: NNE 93km
Updated: 18-Dec-2017 03:12 CET
Partly Cloudy
Partly Cloudy
 Wind from NNW
Wind: NNW 26 km/h
Temperature: 8°C
Wind Chill: 4°C
Dew Point: 5°C
Humidity: 82%
Barometer: 1018 hPa
Clouds: Partly Cloudy
Visibility: 10 km
2017/12/18 02:55 EHFS 180255Z AUTO 33014KT 300V010 9999 NSC 08/05 Q1018 W///H///
 
LFAT - Le TOUQUET/Paris Plage, France
Distance from station: WSW 114km
Updated: 18-Dec-2017 04:12 CET
Mostly Cloudy
Mostly Cloudy
 Wind from N
Wind: N 22 km/h
Temperature: 8°C
Wind Chill: 4°C
Dew Point: 6°C
Humidity: 87%
Barometer: 1021 hPa
Clouds: Mostly Cloudy
Visibility: 10 km
Cloud details: Mostly Cloudy 671 m
2017/12/18 03:00 LFAT 180300Z AUTO 35012KT 9999 BKN022 08/06 Q1021
EBCI - CHARLEROI/BXL sud, Belgique
Distance from station: ESE 112km
Updated: 18-Dec-2017 03:12 CET
Mostly Cloudy
Mostly Cloudy
 Wind from SW
Wind: SW 15 km/h
Temperature: 4°C
Wind Chill: 1°C
Dew Point: 4°C
Humidity: 100%
Barometer: 1018 hPa
Clouds: Mostly Cloudy
Visibility: 10 km
Cloud details: Mostly Cloudy 91 m
2017/12/18 02:50 EBCI 180250Z 23008KT 9999 BKN003 04/04 Q1018 NOSIG
 
EBBR - BRUXELLES National, Belgique
Distance from station: E 113km
Updated: 18-Dec-2017 03:12 CET
Light rain, Showers, Mostly cloudy
Light rain, Showers, Mostly cloudy
 Wind from WNW
Wind: WNW 15 km/h
Temperature: 6°C
Wind Chill: 3°C
Dew Point: 5°C
Humidity: 93%
Barometer: 1017 hPa
Summary: Light rain, Showers
Clouds: Mostly Cloudy
Visibility: 10 km
Cloud details: Mostly Cloudy 244 m
2017/12/18 02:50 EBBR 180250Z 30008KT 9999 -SHRA BKN008 06/05 Q1017 NOSIG

Metar display script from Saratoga-Weather.org